createdAt,value
2023-04-20T00:01:32.821Z,70.87
2023-04-20T00:04:01.020Z,73.77
2023-04-20T00:06:30.280Z,72.70
2023-04-20T00:08:58.305Z,72.53
2023-04-20T00:11:28.356Z,73.10
2023-04-20T00:13:56.327Z,72.73
2023-04-20T00:16:24.512Z,73.10
2023-04-20T00:18:52.704Z,71.83
2023-04-20T00:21:23.982Z,74.63
2023-04-20T00:23:52.452Z,70.67
2023-04-20T00:26:21.560Z,73.13
2023-04-20T00:28:51.695Z,71.87
2023-04-20T00:31:20.093Z,73.33
2023-04-20T00:33:48.673Z,69.20
2023-04-20T00:36:16.730Z,72.80
2023-04-20T00:38:44.760Z,69.13
2023-04-20T00:41:12.922Z,72.17
2023-04-20T00:43:52.674Z,69.80
2023-04-20T00:46:21.094Z,73.00
2023-04-20T00:48:51.049Z,70.80
2023-04-20T00:51:20.553Z,75.93
2023-04-20T00:53:48.697Z,73.00
2023-04-20T00:56:17.491Z,73.67
2023-04-20T00:58:45.643Z,71.90
2023-04-20T01:01:17.750Z,70.20
2023-04-20T01:03:46.403Z,73.80
2023-04-20T01:06:15.724Z,82.53
2023-04-20T01:08:48.151Z,76.63
2023-04-20T01:11:16.318Z,70.80
2023-04-20T01:13:44.694Z,72.70
2023-04-20T01:16:14.439Z,71.27
2023-04-20T01:18:48.286Z,70.70
2023-04-20T01:21:18.623Z,72.23
2023-04-20T01:23:48.381Z,72.27
2023-04-20T01:26:17.937Z,71.07
2023-04-20T01:28:46.542Z,71.03
2023-04-20T01:31:15.356Z,73.80
2023-04-20T01:33:43.516Z,71.57
2023-04-20T01:36:11.775Z,72.07
2023-04-20T01:38:40.005Z,72.40
2023-04-20T01:41:10.744Z,72.17
2023-04-20T01:43:39.712Z,71.87
2023-04-20T01:46:08.137Z,74.40
2023-04-20T01:48:36.220Z,73.80
2023-04-20T01:51:04.383Z,74.50
2023-04-20T01:53:32.469Z,73.63
2023-04-20T01:56:02.288Z,73.77
2023-04-20T01:58:31.693Z,74.50
2023-04-20T02:00:59.764Z,72.73
2023-04-20T02:03:28.153Z,74.13
2023-04-20T02:05:56.539Z,70.30
2023-04-20T02:08:24.581Z,73.03
2023-04-20T02:10:52.611Z,72.90
2023-04-20T02:13:20.709Z,73.77
2023-04-20T02:15:50.159Z,73.50
2023-04-20T02:18:18.202Z,71.43
2023-04-20T02:20:47.047Z,73.37
2023-04-20T02:23:15.601Z,73.57
2023-04-20T02:25:43.627Z,73.57
2023-04-20T02:28:11.645Z,75.50
2023-04-20T02:30:39.696Z,74.80
2023-04-20T02:33:09.099Z,76.50
2023-04-20T02:35:37.096Z,76.33
2023-04-20T02:38:05.113Z,73.23
2023-04-20T02:40:33.097Z,77.23
2023-04-20T02:43:01.102Z,76.40
2023-04-20T02:45:30.751Z,77.30
2023-04-20T02:47:58.836Z,77.90
2023-04-20T02:50:28.238Z,81.97
2023-04-20T02:52:56.203Z,76.63
2023-04-20T02:55:24.238Z,76.60
2023-04-20T02:57:52.252Z,74.40
2023-04-20T03:00:21.115Z,76.33
2023-04-20T03:02:49.296Z,75.27
2023-04-20T03:05:17.842Z,77.10
2023-04-20T03:07:47.302Z,78.73
2023-04-20T03:10:15.330Z,77.83
2023-04-20T03:12:43.300Z,78.13
2023-04-20T03:15:11.973Z,74.70
2023-04-20T03:17:40.000Z,77.90
2023-04-20T03:20:09.883Z,79.20
2023-04-20T03:22:37.943Z,78.97
2023-04-20T03:25:09.035Z,75.77
2023-04-20T03:27:39.121Z,78.37
2023-04-20T03:30:08.543Z,77.03
2023-04-20T03:32:36.576Z,80.47
2023-04-20T03:35:04.744Z,79.90
2023-04-20T03:37:32.865Z,77.63
2023-04-20T03:40:01.034Z,81.23
2023-04-20T03:42:31.100Z,79.93
2023-04-20T03:44:59.131Z,76.83
2023-04-20T03:47:27.138Z,79.87
2023-04-20T03:49:55.181Z,77.00
2023-04-20T03:52:23.357Z,81.03
2023-04-20T03:54:51.489Z,75.60
2023-04-20T03:57:19.625Z,83.10
2023-04-20T03:59:49.075Z,78.53
2023-04-20T04:02:17.336Z,80.07
2023-04-20T04:04:46.393Z,79.37
2023-04-20T04:07:14.566Z,79.07
2023-04-20T04:09:42.561Z,82.40
2023-04-20T04:12:10.829Z,76.97
2023-04-20T04:14:38.858Z,82.33
2023-04-20T04:17:08.794Z,78.83
2023-04-20T04:19:36.961Z,82.33
2023-04-20T04:22:04.957Z,79.40
2023-04-20T04:24:33.372Z,84.30
2023-04-20T04:27:05.293Z,81.17
2023-04-20T04:29:35.749Z,78.53
2023-04-20T04:32:04.413Z,81.20
2023-04-20T04:34:33.825Z,81.93
2023-04-20T04:37:02.468Z,81.43
2023-04-20T04:39:31.399Z,83.40
2023-04-20T04:41:59.390Z,81.80
2023-04-20T04:44:28.858Z,81.43
2023-04-20T04:46:57.611Z,82.27
2023-04-20T04:49:26.559Z,83.70
2023-04-20T04:51:56.014Z,83.17
2023-04-20T04:54:24.005Z,83.43
2023-04-20T04:56:52.053Z,82.73
2023-04-20T04:59:20.213Z,82.63
2023-04-20T05:01:48.306Z,83.50
2023-04-20T05:04:16.428Z,84.57
2023-04-20T05:06:44.512Z,85.67
2023-04-20T05:09:13.963Z,84.47
2023-04-20T05:11:41.967Z,86.30
2023-04-20T05:14:15.186Z,83.73
2023-04-20T05:16:43.286Z,89.27
2023-04-20T05:19:11.374Z,84.93
2023-04-20T05:21:39.928Z,88.10
2023-04-20T05:24:08.551Z,90.33
2023-04-20T05:26:37.901Z,89.17
2023-04-20T05:29:05.985Z,88.90
2023-04-20T05:31:34.152Z,92.73
2023-04-20T05:34:03.017Z,88.60
2023-04-20T05:36:33.533Z,91.20
2023-04-20T05:39:01.607Z,94.40
2023-04-20T05:41:29.652Z,95.30
2023-04-20T05:43:59.178Z,91.10
2023-04-20T05:46:27.695Z,95.63
2023-04-20T05:48:55.802Z,92.67
2023-04-20T05:51:25.850Z,97.43
2023-04-20T05:53:53.896Z,97.17
2023-04-20T05:56:21.942Z,97.30
2023-04-20T05:58:50.131Z,100.47
2023-04-20T06:01:19.552Z,98.80
2023-04-20T06:03:49.238Z,99.60
2023-04-20T06:06:17.567Z,99.77
2023-04-20T06:08:45.571Z,102.57
2023-04-20T06:11:13.643Z,96.33
2023-04-20T06:13:41.689Z,102.67
2023-04-20T06:16:11.023Z,99.87
2023-04-20T06:18:40.596Z,103.73
2023-04-20T06:21:11.230Z,99.50
2023-04-20T06:23:39.429Z,101.07
2023-04-20T06:26:08.860Z,99.90
2023-04-20T06:28:37.221Z,98.17
2023-04-20T06:31:06.007Z,97.73
2023-04-20T06:33:34.199Z,95.97
2023-04-20T06:36:03.568Z,99.17
2023-04-20T06:38:31.713Z,99.37
2023-04-20T06:41:02.554Z,100.87
2023-04-20T06:43:30.891Z,100.67
2023-04-20T06:46:00.682Z,101.30
2023-04-20T06:48:32.612Z,102.73
2023-04-20T06:51:02.153Z,106.60
2023-04-20T06:53:31.551Z,103.23
2023-04-20T06:56:00.050Z,102.50
2023-04-20T06:58:28.105Z,105.50
2023-04-20T07:00:59.048Z,106.03
2023-04-20T07:03:27.405Z,106.43
2023-04-20T07:05:55.588Z,109.10
2023-04-20T07:08:24.174Z,110.83
2023-04-20T07:10:54.325Z,115.93
2023-04-20T07:13:22.361Z,115.93
2023-04-20T07:15:50.617Z,119.50
2023-04-20T07:18:18.716Z,119.83
2023-04-20T07:20:47.050Z,122.80
2023-04-20T07:23:15.057Z,124.33
2023-04-20T07:25:43.352Z,123.70
2023-04-20T07:28:13.148Z,129.43
2023-04-20T07:30:41.378Z,131.07
2023-04-20T07:33:11.339Z,130.07
2023-04-20T07:35:39.399Z,128.87
2023-04-20T07:38:07.377Z,128.10
2023-04-20T07:40:35.367Z,128.57
2023-04-20T07:43:03.629Z,126.77
2023-04-20T07:45:33.042Z,132.47
2023-04-20T07:48:01.577Z,130.33
2023-04-20T07:50:29.902Z,134.53
2023-04-20T07:52:57.912Z,134.77
2023-04-20T07:55:25.918Z,133.07
2023-04-20T07:57:53.887Z,131.13
2023-04-20T08:00:22.925Z,132.87
2023-04-20T08:02:52.424Z,128.80
2023-04-20T08:05:20.686Z,131.30
2023-04-20T08:07:48.826Z,129.63
2023-04-20T08:10:16.933Z,136.33
2023-04-20T08:12:45.084Z,138.90
2023-04-20T08:15:14.455Z,137.83
2023-04-20T08:17:43.766Z,142.57
2023-04-20T08:20:13.317Z,146.63
2023-04-20T08:22:42.547Z,148.00
2023-04-20T08:25:11.331Z,151.50
2023-04-20T08:27:39.437Z,154.80
2023-04-20T08:30:08.744Z,154.23
2023-04-20T08:32:38.240Z,159.43
2023-04-20T08:35:07.380Z,153.47
2023-04-20T08:37:37.534Z,154.07
2023-04-20T08:40:06.805Z,149.90
2023-04-20T08:42:34.850Z,152.80
2023-04-20T08:45:02.908Z,149.17
2023-04-20T08:47:32.498Z,142.77
2023-04-20T08:50:02.084Z,143.83
2023-04-20T08:52:30.124Z,140.33
2023-04-20T08:54:59.479Z,140.57
2023-04-20T08:57:27.613Z,135.93
2023-04-20T08:59:56.727Z,136.20
2023-04-20T09:02:24.928Z,129.87
2023-04-20T09:05:02.948Z,135.33
2023-04-20T09:07:31.530Z,126.10
2023-04-20T09:10:02.304Z,126.53
2023-04-20T09:12:30.337Z,123.73
2023-04-20T09:14:58.443Z,121.77
2023-04-20T09:17:34.321Z,118.03
2023-04-20T09:20:02.503Z,121.23
2023-04-20T09:22:31.472Z,120.00
2023-04-20T09:25:01.197Z,121.63
2023-04-20T09:27:29.342Z,122.83
2023-04-20T09:30:01.206Z,126.10
2023-04-20T09:32:29.879Z,121.50
2023-04-20T09:34:59.661Z,125.57
2023-04-20T09:37:27.631Z,126.37
2023-04-20T09:40:00.590Z,133.17
2023-04-20T09:42:31.537Z,137.77
2023-04-20T09:45:00.668Z,145.20
2023-04-20T09:47:29.981Z,144.40
2023-04-20T09:50:04.477Z,156.03
2023-04-20T09:52:39.341Z,154.90
2023-04-20T09:55:08.778Z,160.17
2023-04-20T09:57:40.075Z,166.00
2023-04-20T10:00:10.800Z,165.23
2023-04-20T10:02:39.635Z,170.43
2023-04-20T10:05:08.812Z,168.40
2023-04-20T10:07:37.081Z,169.17
2023-04-20T10:10:10.015Z,181.57
2023-04-20T10:12:50.374Z,180.40
2023-04-20T10:15:18.454Z,188.23
2023-04-20T10:17:46.752Z,199.00
2023-04-20T10:20:22.523Z,202.37
2023-04-20T10:22:53.061Z,209.03
2023-04-20T10:25:24.412Z,217.67
2023-04-20T10:27:58.968Z,222.40
2023-04-20T10:30:27.964Z,213.93
2023-04-20T10:33:06.660Z,222.70
2023-04-20T10:35:48.123Z,221.50
2023-04-20T10:38:16.174Z,218.03
2023-04-20T10:40:44.245Z,219.53
2023-04-20T10:43:23.408Z,221.67
2023-04-20T10:45:52.333Z,223.77
2023-04-20T10:48:20.410Z,209.87
2023-04-20T10:50:48.642Z,210.00
2023-04-20T10:53:21.527Z,206.77
2023-04-20T10:55:58.763Z,202.93
2023-04-20T10:58:28.351Z,211.17
2023-04-20T11:01:00.982Z,220.00
2023-04-20T11:03:30.255Z,225.40
2023-04-20T11:06:01.439Z,230.40
2023-04-20T11:08:40.157Z,226.30
2023-04-20T11:11:19.367Z,236.83
2023-04-20T11:13:49.328Z,235.00
2023-04-20T11:16:19.110Z,235.53
2023-04-20T11:18:52.810Z,246.17
2023-04-20T11:21:21.140Z,242.33
2023-04-20T11:23:50.187Z,251.00
2023-04-20T11:26:18.953Z,258.87
2023-04-20T11:28:56.610Z,263.37
2023-04-20T11:31:26.395Z,263.70
2023-04-20T11:33:54.475Z,273.70
2023-04-20T11:36:24.085Z,278.97
2023-04-20T11:38:52.466Z,270.77
2023-04-20T11:41:21.674Z,272.57
2023-04-20T11:43:50.347Z,267.53
2023-04-20T11:46:21.043Z,264.37
2023-04-20T11:48:49.426Z,265.07
2023-04-20T11:51:17.666Z,255.90
2023-04-20T11:53:45.786Z,253.93
2023-04-20T11:56:13.791Z,250.60
2023-04-20T11:58:41.786Z,250.10
2023-04-20T12:01:10.272Z,255.17
2023-04-20T12:03:39.925Z,256.27
2023-04-20T12:06:10.523Z,259.13
2023-04-20T12:08:38.548Z,256.67
2023-04-20T12:11:06.849Z,252.70
2023-04-20T12:13:35.010Z,249.13
2023-04-20T12:16:03.108Z,250.83
2023-04-20T12:18:31.253Z,237.60
2023-04-20T12:21:00.855Z,246.93
2023-04-20T12:23:29.147Z,237.87
2023-04-20T12:25:57.215Z,240.07
2023-04-20T12:28:25.257Z,232.63
2023-04-20T12:30:53.347Z,230.80
2023-04-20T12:33:21.362Z,230.03
2023-04-20T12:35:49.377Z,231.93
2023-04-20T12:38:19.112Z,230.87
2023-04-20T12:40:47.116Z,240.87
2023-04-20T12:43:16.180Z,242.17
2023-04-20T12:45:44.247Z,258.07
2023-04-20T12:48:12.351Z,269.83
2023-04-20T12:50:40.539Z,271.08
2023-04-20T12:53:08.572Z,287.90
2023-04-20T12:55:38.058Z,287.90
2023-04-20T12:58:06.358Z,287.60
2023-04-20T13:00:34.369Z,290.70
2023-04-20T13:03:02.585Z,290.77
2023-04-20T13:05:31.126Z,308.53
2023-04-20T13:07:59.193Z,308.07
2023-04-20T13:10:28.111Z,310.50
2023-04-20T13:12:58.329Z,325.97
2023-04-20T13:15:38.157Z,343.00
2023-04-20T13:18:07.866Z,352.60
2023-04-20T13:20:36.001Z,358.60
2023-04-20T13:23:05.070Z,367.73
2023-04-20T13:25:34.736Z,375.42
2023-04-20T13:28:05.146Z,371.83
2023-04-20T13:30:33.763Z,368.25
2023-04-20T13:33:02.132Z,372.70
2023-04-20T13:35:30.284Z,364.98
2023-04-20T13:37:59.300Z,368.85
2023-04-20T13:40:27.360Z,370.40
2023-04-20T13:42:55.385Z,371.23
2023-04-20T13:45:25.108Z,375.33
2023-04-20T13:47:53.206Z,372.45
2023-04-20T13:50:21.304Z,377.80
2023-04-20T13:52:51.350Z,381.42
2023-04-20T13:55:20.637Z,383.92
2023-04-20T13:57:48.759Z,381.52
2023-04-20T14:00:17.260Z,382.25
2023-04-20T14:02:47.816Z,373.33
2023-04-20T14:05:16.013Z,371.08
2023-04-20T14:07:44.065Z,367.90
2023-04-20T14:10:12.244Z,365.85
2023-04-20T14:12:40.272Z,363.52
2023-04-20T14:15:09.091Z,359.80
2023-04-20T14:17:37.148Z,361.48
2023-04-20T14:20:08.196Z,361.83
2023-04-20T14:22:37.516Z,363.85
2023-04-20T14:25:06.256Z,372.98
2023-04-20T14:27:34.279Z,379.27
2023-04-20T14:30:02.480Z,384.77
2023-04-20T14:32:31.554Z,399.13
2023-04-20T14:34:59.653Z,403.30
2023-04-20T14:37:29.044Z,415.30
2023-04-20T14:39:57.053Z,423.98
2023-04-20T14:42:25.036Z,429.55
2023-04-20T14:44:53.066Z,441.15
2023-04-20T14:47:21.226Z,451.98
2023-04-20T14:49:49.329Z,442.50
2023-04-20T14:52:17.482Z,427.38
2023-04-20T14:54:46.924Z,423.15
2023-04-20T14:57:15.003Z,426.67
2023-04-20T14:59:43.109Z,419.75
2023-04-20T15:02:11.195Z,409.67
2023-04-20T15:04:39.551Z,405.15
2023-04-20T15:07:07.675Z,409.02
2023-04-20T15:09:35.876Z,394.98
2023-04-20T15:12:05.858Z,395.88
2023-04-20T15:14:34.024Z,387.17
2023-04-20T15:17:01.974Z,381.85
2023-04-20T15:19:29.946Z,383.20
2023-04-20T15:21:57.863Z,375.52
2023-04-20T15:24:26.904Z,380.00
2023-04-20T15:26:54.910Z,375.58
2023-04-20T15:29:24.219Z,364.42
2023-04-20T15:31:52.309Z,372.30
2023-04-20T15:34:20.698Z,374.27
2023-04-20T15:36:48.876Z,375.30
2023-04-20T15:39:16.917Z,386.27
2023-04-20T15:41:44.891Z,387.92
2023-04-20T15:44:13.679Z,383.45
2023-04-20T15:46:43.012Z,388.65
2023-04-20T15:49:11.031Z,379.25
2023-04-20T15:51:39.591Z,370.60
2023-04-20T15:54:07.672Z,372.80
2023-04-20T15:56:35.686Z,363.25
2023-04-20T15:59:04.362Z,360.83
2023-04-20T16:01:32.409Z,355.30
2023-04-20T16:04:02.224Z,353.98
2023-04-20T16:06:31.601Z,349.10
2023-04-20T16:08:59.632Z,344.07
2023-04-20T16:11:27.743Z,332.90
2023-04-20T16:13:57.608Z,328.73
2023-04-20T16:16:25.768Z,328.77
2023-04-20T16:18:55.091Z,340.60
2023-04-20T16:21:24.440Z,350.85
2023-04-20T16:23:54.373Z,362.20
2023-04-20T16:26:22.554Z,356.73
2023-04-20T16:28:50.608Z,358.83
2023-04-20T16:31:18.906Z,361.17
2023-04-20T16:33:47.498Z,365.27
2023-04-20T16:36:16.599Z,373.50
2023-04-20T16:38:45.967Z,373.98
2023-04-20T16:41:13.986Z,387.67
2023-04-20T16:43:42.071Z,383.70
2023-04-20T16:46:13.730Z,381.08
2023-04-20T16:48:41.955Z,380.50
2023-04-20T16:51:10.004Z,375.70
2023-04-20T16:53:38.033Z,364.48
2023-04-20T16:56:09.134Z,369.02
2023-04-20T16:58:38.973Z,350.02
2023-04-20T17:01:08.818Z,355.00
2023-04-20T17:03:37.137Z,345.63
2023-04-20T17:06:08.019Z,343.23
2023-04-20T17:08:37.354Z,338.35
2023-04-20T17:11:07.548Z,335.55
2023-04-20T17:13:35.841Z,329.65
2023-04-20T17:16:05.788Z,325.87
2023-04-20T17:18:35.131Z,319.38
2023-04-20T17:21:03.683Z,317.58
2023-04-20T17:23:34.189Z,310.97
2023-04-20T17:26:02.169Z,312.03
2023-04-20T17:28:31.735Z,299.00
2023-04-20T17:30:59.979Z,300.20
2023-04-20T17:33:28.081Z,301.63
2023-04-20T17:35:57.357Z,294.87
2023-04-20T17:38:25.571Z,291.30
2023-04-20T17:40:53.686Z,283.13
2023-04-20T17:43:21.757Z,293.03
2023-04-20T17:45:51.541Z,278.70
2023-04-20T17:48:19.573Z,280.30
2023-04-20T17:50:49.607Z,273.83
2023-04-20T17:53:17.853Z,278.63
2023-04-20T17:55:45.884Z,267.70
2023-04-20T17:58:14.005Z,274.17
2023-04-20T18:00:42.993Z,270.63
2023-04-20T18:03:14.863Z,264.63
2023-04-20T18:05:43.117Z,268.33
2023-04-20T18:08:13.272Z,265.03
2023-04-20T18:10:41.254Z,255.60
2023-04-20T18:13:09.621Z,256.67
2023-04-20T18:15:37.845Z,254.03
2023-04-20T18:18:05.986Z,249.17
2023-04-20T18:20:35.596Z,251.93
2023-04-20T18:23:03.533Z,248.10
2023-04-20T18:25:31.551Z,246.67
2023-04-20T18:28:01.741Z,243.07
2023-04-20T18:30:29.761Z,239.30
2023-04-20T18:32:57.846Z,236.80
2023-04-20T18:35:26.152Z,229.37
2023-04-20T18:37:55.744Z,231.97
2023-04-20T18:40:23.941Z,240.90
2023-04-20T18:42:54.776Z,226.33
2023-04-20T18:45:23.979Z,228.03
2023-04-20T18:47:52.107Z,232.80
2023-04-20T18:50:20.246Z,224.73
2023-04-20T18:52:48.346Z,225.73
2023-04-20T18:55:17.813Z,227.60
2023-04-20T18:57:47.764Z,224.27
2023-04-20T19:00:16.413Z,227.07
2023-04-20T19:02:44.613Z,214.77
2023-04-20T19:05:13.133Z,229.50
2023-04-20T19:07:41.205Z,235.40
2023-04-20T19:10:10.541Z,224.07
2023-04-20T19:12:39.973Z,210.00
2023-04-20T19:15:09.745Z,208.50
2023-04-20T19:17:37.781Z,208.80
2023-04-20T19:20:06.857Z,204.63
2023-04-20T19:22:34.920Z,201.23
2023-04-20T19:25:03.574Z,204.53
2023-04-20T19:27:31.846Z,203.70
2023-04-20T19:30:01.202Z,199.57
2023-04-20T19:32:29.431Z,194.67
2023-04-20T19:34:59.147Z,195.20
2023-04-20T19:37:27.367Z,198.90
2023-04-20T19:39:55.605Z,194.00
2023-04-20T19:42:23.677Z,190.17
2023-04-20T19:44:53.570Z,194.20
2023-04-20T19:47:22.960Z,189.93
2023-04-20T19:49:51.064Z,187.27
2023-04-20T19:52:19.066Z,192.20
2023-04-20T19:54:47.084Z,186.63
2023-04-20T19:57:15.152Z,191.73
2023-04-20T19:59:43.110Z,184.33
2023-04-20T20:02:11.407Z,186.03
2023-04-20T20:04:40.891Z,182.50
2023-04-20T20:07:08.987Z,173.07
2023-04-20T20:09:37.479Z,181.10
2023-04-20T20:12:08.032Z,184.00
2023-04-20T20:14:37.606Z,181.03
2023-04-20T20:17:06.585Z,177.53
2023-04-20T20:19:34.521Z,180.73
2023-04-20T20:22:04.001Z,177.57
2023-04-20T20:24:31.959Z,178.17
2023-04-20T20:26:59.940Z,170.80
2023-04-20T20:29:29.622Z,172.93
2023-04-20T20:31:57.709Z,172.17
2023-04-20T20:34:25.739Z,176.77
2023-04-20T20:36:54.060Z,169.87
2023-04-20T20:39:23.687Z,174.70
2023-04-20T20:41:51.874Z,170.73
2023-04-20T20:44:20.697Z,172.23
2023-04-20T20:46:49.127Z,169.10
2023-04-20T20:49:17.310Z,168.97
2023-04-20T20:51:45.554Z,170.37
2023-04-20T20:54:13.524Z,166.57
2023-04-20T20:56:43.635Z,166.97
2023-04-20T20:59:11.669Z,167.53
2023-04-20T21:01:39.933Z,168.73
2023-04-20T21:04:08.432Z,178.10
2023-04-20T21:06:36.596Z,165.10
2023-04-20T21:09:04.995Z,167.97
2023-04-20T21:11:33.056Z,169.37
2023-04-20T21:14:03.467Z,166.07
2023-04-20T21:16:32.143Z,163.30
2023-04-20T21:19:00.597Z,160.27
2023-04-20T21:21:29.019Z,157.33
2023-04-20T21:23:57.101Z,158.50
2023-04-20T21:26:25.122Z,161.70
2023-04-20T21:28:53.093Z,158.70
2023-04-20T21:31:22.684Z,160.93
2023-04-20T21:33:50.662Z,153.20
2023-04-20T21:36:18.693Z,158.50
2023-04-20T21:38:46.904Z,156.07
2023-04-20T21:41:14.856Z,157.90
2023-04-20T21:43:43.615Z,154.43
2023-04-20T21:46:15.756Z,156.13
2023-04-20T21:48:45.202Z,155.77
2023-04-20T21:51:16.150Z,155.17
2023-04-20T21:53:44.245Z,154.17
2023-04-20T21:56:12.288Z,155.83
2023-04-20T21:58:40.603Z,154.10
2023-04-20T22:01:10.839Z,158.40
2023-04-20T22:03:39.014Z,147.83
2023-04-20T22:06:08.937Z,147.43
2023-04-20T22:08:39.689Z,150.87
2023-04-20T22:11:07.900Z,149.77
2023-04-20T22:13:38.250Z,148.53
2023-04-20T22:16:07.071Z,150.03
2023-04-20T22:18:35.586Z,147.70
2023-04-20T22:21:03.600Z,152.10
2023-04-20T22:23:33.138Z,147.80
2023-04-20T22:26:01.139Z,145.27
2023-04-20T22:28:29.112Z,144.97
2023-04-20T22:30:57.098Z,147.80
2023-04-20T22:33:25.762Z,152.27
2023-04-20T22:35:53.745Z,144.70
2023-04-20T22:38:22.301Z,145.97
2023-04-20T22:40:51.809Z,144.77
2023-04-20T22:43:21.256Z,145.83
2023-04-20T22:45:49.259Z,145.17
2023-04-20T22:48:17.542Z,144.57
2023-04-20T22:50:45.774Z,139.60
2023-04-20T22:53:14.361Z,144.73
2023-04-20T22:55:42.742Z,143.07
2023-04-20T22:58:12.453Z,141.57
2023-04-20T23:00:41.048Z,140.53
2023-04-20T23:03:09.643Z,139.80
2023-04-20T23:05:39.265Z,140.97
2023-04-20T23:08:07.770Z,143.87
2023-04-20T23:10:35.957Z,145.70
2023-04-20T23:13:05.037Z,141.73
2023-04-20T23:15:34.628Z,137.67
2023-04-20T23:18:05.623Z,142.70
2023-04-20T23:20:33.710Z,142.63
2023-04-20T23:23:01.908Z,138.20
2023-04-20T23:25:30.018Z,141.53
2023-04-20T23:27:58.016Z,138.20
2023-04-20T23:30:26.006Z,140.53
2023-04-20T23:32:55.861Z,141.30
2023-04-20T23:35:24.108Z,137.90
2023-04-20T23:37:52.154Z,134.93
2023-04-20T23:40:20.422Z,139.67
2023-04-20T23:42:48.844Z,133.17
2023-04-20T23:45:17.083Z,135.60
2023-04-20T23:47:46.322Z,131.83
2023-04-20T23:50:15.789Z,132.07
2023-04-20T23:52:43.899Z,136.33
2023-04-20T23:55:11.984Z,133.83
2023-04-20T23:57:41.089Z,132.77
